<?xml version="1.0" encoding="UTF-8" standalone="no" ?>
<gpx xmlns="http://www.topografix.com/GPX/1/1" xmlns:xsi="http://www.w3.org/2001/XMLSchema-instance" xsi:schemaLocation="http://www.topografix.com/GPX/1/1 http://www.topografix.com/GPX/1/1/gpx.xsd" version="1.1" creator="VisuGPX - https://www.visugpx.com">
  <metadata>
    <name>M - 83 - SEILLANS</name>
    <desc><![CDATA[SEILLANS - Lac de Méaulx]]></desc>
  </metadata>
  <wpt lat="43.58048" lon="6.62288">
    <ele>331</ele>
    <name><![CDATA[Point de passage 1]]></name>
    <type><![CDATA[GENERIC]]></type>
  </wpt>
  <wpt lat="43.58028" lon="6.62257">
    <ele>328</ele>
    <name><![CDATA[Point de passage 2]]></name>
    <type><![CDATA[GENERIC]]></type>
  </wpt>
  <trk>
    <name><![CDATA[Lac de Meaulx mercrefi]]></name>
    <trkseg>
      <trkpt lat="43.58048" lon="6.62288">
        <ele>331</ele>
        <time>2026-03-25T13:20:00.000Z</time>
      </trkpt>
      <trkpt lat="43.58046" lon="6.62285">
        <ele>330</ele>
        <time>2026-03-25T13:20:03.000Z</time>
      </trkpt>
      <trkpt lat="43.58034" lon="6.62264">
        <ele>323</ele>
        <time>2026-03-25T13:21:39.000Z</time>
      </trkpt>
      <trkpt lat="43.58017" lon="6.62246">
        <ele>325</ele>
        <time>2026-03-25T13:22:03.000Z</time>
      </trkpt>
      <trkpt lat="43.57994" lon="6.62241">
        <ele>328</ele>
        <time>2026-03-25T13:22:27.000Z</time>
      </trkpt>
      <trkpt lat="43.57971" lon="6.62247">
        <ele>328</ele>
        <time>2026-03-25T13:22:51.000Z</time>
      </trkpt>
      <trkpt lat="43.57947" lon="6.62256">
        <ele>328</ele>
        <time>2026-03-25T13:23:15.000Z</time>
      </trkpt>
      <trkpt lat="43.57923" lon="6.62258">
        <ele>329</ele>
        <time>2026-03-25T13:23:39.000Z</time>
      </trkpt>
      <trkpt lat="43.579" lon="6.62259">
        <ele>330</ele>
        <time>2026-03-25T13:24:00.000Z</time>
      </trkpt>
      <trkpt lat="43.57875" lon="6.62259">
        <ele>331</ele>
        <time>2026-03-25T13:24:24.000Z</time>
      </trkpt>
      <trkpt lat="43.57854" lon="6.62267">
        <ele>332</ele>
        <time>2026-03-25T13:24:45.000Z</time>
      </trkpt>
      <trkpt lat="43.57836" lon="6.62289">
        <ele>333</ele>
        <time>2026-03-25T13:25:06.000Z</time>
      </trkpt>
      <trkpt lat="43.57822" lon="6.62315">
        <ele>333</ele>
        <time>2026-03-25T13:25:27.000Z</time>
      </trkpt>
      <trkpt lat="43.57813" lon="6.62345">
        <ele>334</ele>
        <time>2026-03-25T13:25:48.000Z</time>
      </trkpt>
      <trkpt lat="43.578" lon="6.62375">
        <ele>334</ele>
        <time>2026-03-25T13:26:09.000Z</time>
      </trkpt>
      <trkpt lat="43.57787" lon="6.624">
        <ele>333</ele>
        <time>2026-03-25T13:26:27.000Z</time>
      </trkpt>
      <trkpt lat="43.5777" lon="6.62426">
        <ele>332</ele>
        <time>2026-03-25T13:26:48.000Z</time>
      </trkpt>
      <trkpt lat="43.57753" lon="6.62448">
        <ele>331</ele>
        <time>2026-03-25T13:27:06.000Z</time>
      </trkpt>
      <trkpt lat="43.57734" lon="6.62468">
        <ele>330</ele>
        <time>2026-03-25T13:27:27.000Z</time>
      </trkpt>
      <trkpt lat="43.57714" lon="6.62484">
        <ele>329</ele>
        <time>2026-03-25T13:27:45.000Z</time>
      </trkpt>
      <trkpt lat="43.57692" lon="6.62499">
        <ele>328</ele>
        <time>2026-03-25T13:28:06.000Z</time>
      </trkpt>
      <trkpt lat="43.57668" lon="6.62503">
        <ele>328</ele>
        <time>2026-03-25T13:28:27.000Z</time>
      </trkpt>
      <trkpt lat="43.57647" lon="6.62492">
        <ele>328</ele>
        <time>2026-03-25T13:28:45.000Z</time>
      </trkpt>
      <trkpt lat="43.57626" lon="6.62478">
        <ele>327</ele>
        <time>2026-03-25T13:29:03.000Z</time>
      </trkpt>
      <trkpt lat="43.57604" lon="6.62478">
        <ele>327</ele>
        <time>2026-03-25T13:29:21.000Z</time>
      </trkpt>
      <trkpt lat="43.57579" lon="6.62477">
        <ele>327</ele>
        <time>2026-03-25T13:29:42.000Z</time>
      </trkpt>
      <trkpt lat="43.57555" lon="6.62472">
        <ele>326</ele>
        <time>2026-03-25T13:30:03.000Z</time>
      </trkpt>
      <trkpt lat="43.57532" lon="6.62473">
        <ele>326</ele>
        <time>2026-03-25T13:30:21.000Z</time>
      </trkpt>
      <trkpt lat="43.57508" lon="6.62479">
        <ele>326</ele>
        <time>2026-03-25T13:30:39.000Z</time>
      </trkpt>
      <trkpt lat="43.57484" lon="6.62486">
        <ele>326</ele>
        <time>2026-03-25T13:30:57.000Z</time>
      </trkpt>
      <trkpt lat="43.57462" lon="6.62497">
        <ele>326</ele>
        <time>2026-03-25T13:31:15.000Z</time>
      </trkpt>
      <trkpt lat="43.5744" lon="6.62507">
        <ele>326</ele>
        <time>2026-03-25T13:31:36.000Z</time>
      </trkpt>
      <trkpt lat="43.57418" lon="6.62503">
        <ele>327</ele>
        <time>2026-03-25T13:31:57.000Z</time>
      </trkpt>
      <trkpt lat="43.57399" lon="6.62485">
        <ele>328</ele>
        <time>2026-03-25T13:32:18.000Z</time>
      </trkpt>
      <trkpt lat="43.5738" lon="6.62463">
        <ele>328</ele>
        <time>2026-03-25T13:32:42.000Z</time>
      </trkpt>
      <trkpt lat="43.57364" lon="6.6244">
        <ele>329</ele>
        <time>2026-03-25T13:33:03.000Z</time>
      </trkpt>
      <trkpt lat="43.57344" lon="6.6243">
        <ele>330</ele>
        <time>2026-03-25T13:33:24.000Z</time>
      </trkpt>
      <trkpt lat="43.57327" lon="6.6245">
        <ele>331</ele>
        <time>2026-03-25T13:33:45.000Z</time>
      </trkpt>
      <trkpt lat="43.5731" lon="6.62473">
        <ele>332</ele>
        <time>2026-03-25T13:34:06.000Z</time>
      </trkpt>
      <trkpt lat="43.5729" lon="6.62489">
        <ele>332</ele>
        <time>2026-03-25T13:34:27.000Z</time>
      </trkpt>
      <trkpt lat="43.57272" lon="6.62511">
        <ele>333</ele>
        <time>2026-03-25T13:34:48.000Z</time>
      </trkpt>
      <trkpt lat="43.57261" lon="6.6254">
        <ele>333</ele>
        <time>2026-03-25T13:35:09.000Z</time>
      </trkpt>
      <trkpt lat="43.57245" lon="6.62566">
        <ele>332</ele>
        <time>2026-03-25T13:35:33.000Z</time>
      </trkpt>
      <trkpt lat="43.57225" lon="6.62587">
        <ele>331</ele>
        <time>2026-03-25T13:35:54.000Z</time>
      </trkpt>
      <trkpt lat="43.57207" lon="6.62606">
        <ele>330</ele>
        <time>2026-03-25T13:36:12.000Z</time>
      </trkpt>
      <trkpt lat="43.57187" lon="6.62626">
        <ele>328</ele>
        <time>2026-03-25T13:36:33.000Z</time>
      </trkpt>
      <trkpt lat="43.57168" lon="6.62639">
        <ele>326</ele>
        <time>2026-03-25T13:36:54.000Z</time>
      </trkpt>
      <trkpt lat="43.57161" lon="6.62615">
        <ele>325</ele>
        <time>2026-03-25T13:37:24.000Z</time>
      </trkpt>
      <trkpt lat="43.57165" lon="6.62582">
        <ele>324</ele>
        <time>2026-03-25T13:37:45.000Z</time>
      </trkpt>
      <trkpt lat="43.57165" lon="6.62548">
        <ele>322</ele>
        <time>2026-03-25T13:38:06.000Z</time>
      </trkpt>
      <trkpt lat="43.57157" lon="6.62516">
        <ele>321</ele>
        <time>2026-03-25T13:38:27.000Z</time>
      </trkpt>
      <trkpt lat="43.57143" lon="6.62492">
        <ele>319</ele>
        <time>2026-03-25T13:38:45.000Z</time>
      </trkpt>
      <trkpt lat="43.57123" lon="6.62476">
        <ele>318</ele>
        <time>2026-03-25T13:39:03.000Z</time>
      </trkpt>
      <trkpt lat="43.57105" lon="6.62456">
        <ele>316</ele>
        <time>2026-03-25T13:39:21.000Z</time>
      </trkpt>
      <trkpt lat="43.57089" lon="6.62434">
        <ele>314</ele>
        <time>2026-03-25T13:39:39.000Z</time>
      </trkpt>
      <trkpt lat="43.57068" lon="6.62437">
        <ele>312</ele>
        <time>2026-03-25T13:41:48.000Z</time>
      </trkpt>
      <trkpt lat="43.57048" lon="6.62448">
        <ele>310</ele>
        <time>2026-03-25T13:42:15.000Z</time>
      </trkpt>
      <trkpt lat="43.57026" lon="6.62437">
        <ele>308</ele>
        <time>2026-03-25T13:42:39.000Z</time>
      </trkpt>
      <trkpt lat="43.57001" lon="6.62434">
        <ele>306</ele>
        <time>2026-03-25T13:43:03.000Z</time>
      </trkpt>
      <trkpt lat="43.56978" lon="6.62444">
        <ele>304</ele>
        <time>2026-03-25T13:43:27.000Z</time>
      </trkpt>
      <trkpt lat="43.56953" lon="6.62446">
        <ele>302</ele>
        <time>2026-03-25T13:43:51.000Z</time>
      </trkpt>
      <trkpt lat="43.56929" lon="6.62443">
        <ele>300</ele>
        <time>2026-03-25T13:44:15.000Z</time>
      </trkpt>
      <trkpt lat="43.56905" lon="6.62436">
        <ele>299</ele>
        <time>2026-03-25T13:44:36.000Z</time>
      </trkpt>
      <trkpt lat="43.56882" lon="6.62428">
        <ele>297</ele>
        <time>2026-03-25T13:44:54.000Z</time>
      </trkpt>
      <trkpt lat="43.56863" lon="6.62429">
        <ele>296</ele>
        <time>2026-03-25T13:45:12.000Z</time>
      </trkpt>
      <trkpt lat="43.56864" lon="6.62458">
        <ele>294</ele>
        <time>2026-03-25T13:45:36.000Z</time>
      </trkpt>
      <trkpt lat="43.56868" lon="6.62492">
        <ele>293</ele>
        <time>2026-03-25T13:46:00.000Z</time>
      </trkpt>
      <trkpt lat="43.5687" lon="6.62525">
        <ele>292</ele>
        <time>2026-03-25T13:46:21.000Z</time>
      </trkpt>
      <trkpt lat="43.56873" lon="6.62557">
        <ele>292</ele>
        <time>2026-03-25T13:46:42.000Z</time>
      </trkpt>
      <trkpt lat="43.56883" lon="6.62586">
        <ele>292</ele>
        <time>2026-03-25T13:47:00.000Z</time>
      </trkpt>
      <trkpt lat="43.56889" lon="6.62619">
        <ele>292</ele>
        <time>2026-03-25T13:47:21.000Z</time>
      </trkpt>
      <trkpt lat="43.56887" lon="6.62651">
        <ele>293</ele>
        <time>2026-03-25T13:47:42.000Z</time>
      </trkpt>
      <trkpt lat="43.56886" lon="6.62683">
        <ele>294</ele>
        <time>2026-03-25T13:48:03.000Z</time>
      </trkpt>
      <trkpt lat="43.5689" lon="6.62714">
        <ele>295</ele>
        <time>2026-03-25T13:48:24.000Z</time>
      </trkpt>
      <trkpt lat="43.56894" lon="6.62747">
        <ele>295</ele>
        <time>2026-03-25T13:48:45.000Z</time>
      </trkpt>
      <trkpt lat="43.56898" lon="6.6278">
        <ele>296</ele>
        <time>2026-03-25T13:49:03.000Z</time>
      </trkpt>
      <trkpt lat="43.56906" lon="6.6281">
        <ele>296</ele>
        <time>2026-03-25T13:49:21.000Z</time>
      </trkpt>
      <trkpt lat="43.56917" lon="6.6284">
        <ele>297</ele>
        <time>2026-03-25T13:49:39.000Z</time>
      </trkpt>
      <trkpt lat="43.56935" lon="6.62862">
        <ele>297</ele>
        <time>2026-03-25T13:49:57.000Z</time>
      </trkpt>
      <trkpt lat="43.56949" lon="6.62889">
        <ele>297</ele>
        <time>2026-03-25T13:50:15.000Z</time>
      </trkpt>
      <trkpt lat="43.56957" lon="6.6292">
        <ele>297</ele>
        <time>2026-03-25T13:50:33.000Z</time>
      </trkpt>
      <trkpt lat="43.5696" lon="6.62952">
        <ele>297</ele>
        <time>2026-03-25T13:50:51.000Z</time>
      </trkpt>
      <trkpt lat="43.56959" lon="6.62984">
        <ele>297</ele>
        <time>2026-03-25T13:51:09.000Z</time>
      </trkpt>
      <trkpt lat="43.56959" lon="6.63017">
        <ele>296</ele>
        <time>2026-03-25T13:51:30.000Z</time>
      </trkpt>
      <trkpt lat="43.5696" lon="6.63048">
        <ele>296</ele>
        <time>2026-03-25T13:57:24.000Z</time>
      </trkpt>
      <trkpt lat="43.56956" lon="6.63081">
        <ele>295</ele>
        <time>2026-03-25T13:57:48.000Z</time>
      </trkpt>
      <trkpt lat="43.5695" lon="6.63111">
        <ele>294</ele>
        <time>2026-03-25T13:58:06.000Z</time>
      </trkpt>
      <trkpt lat="43.56945" lon="6.63141">
        <ele>293</ele>
        <time>2026-03-25T13:58:24.000Z</time>
      </trkpt>
      <trkpt lat="43.56938" lon="6.63173">
        <ele>292</ele>
        <time>2026-03-25T13:58:45.000Z</time>
      </trkpt>
      <trkpt lat="43.5693" lon="6.63202">
        <ele>290</ele>
        <time>2026-03-25T13:59:03.000Z</time>
      </trkpt>
      <trkpt lat="43.56917" lon="6.63232">
        <ele>288</ele>
        <time>2026-03-25T13:59:24.000Z</time>
      </trkpt>
      <trkpt lat="43.56904" lon="6.63261">
        <ele>287</ele>
        <time>2026-03-25T13:59:45.000Z</time>
      </trkpt>
      <trkpt lat="43.56893" lon="6.63289">
        <ele>286</ele>
        <time>2026-03-25T14:00:03.000Z</time>
      </trkpt>
      <trkpt lat="43.56883" lon="6.63319">
        <ele>285</ele>
        <time>2026-03-25T14:00:21.000Z</time>
      </trkpt>
      <trkpt lat="43.56875" lon="6.63348">
        <ele>284</ele>
        <time>2026-03-25T14:00:39.000Z</time>
      </trkpt>
      <trkpt lat="43.56868" lon="6.63378">
        <ele>284</ele>
        <time>2026-03-25T14:00:57.000Z</time>
      </trkpt>
      <trkpt lat="43.56858" lon="6.63407">
        <ele>285</ele>
        <time>2026-03-25T14:01:15.000Z</time>
      </trkpt>
      <trkpt lat="43.56848" lon="6.63438">
        <ele>285</ele>
        <time>2026-03-25T14:01:36.000Z</time>
      </trkpt>
      <trkpt lat="43.56837" lon="6.63469">
        <ele>286</ele>
        <time>2026-03-25T14:01:57.000Z</time>
      </trkpt>
      <trkpt lat="43.56822" lon="6.63493">
        <ele>286</ele>
        <time>2026-03-25T14:02:15.000Z</time>
      </trkpt>
      <trkpt lat="43.56805" lon="6.63513">
        <ele>287</ele>
        <time>2026-03-25T14:02:33.000Z</time>
      </trkpt>
      <trkpt lat="43.56788" lon="6.63533">
        <ele>287</ele>
        <time>2026-03-25T14:02:51.000Z</time>
      </trkpt>
      <trkpt lat="43.56771" lon="6.63555">
        <ele>287</ele>
        <time>2026-03-25T14:03:09.000Z</time>
      </trkpt>
      <trkpt lat="43.56758" lon="6.63581">
        <ele>287</ele>
        <time>2026-03-25T14:03:27.000Z</time>
      </trkpt>
      <trkpt lat="43.56743" lon="6.63606">
        <ele>286</ele>
        <time>2026-03-25T14:03:45.000Z</time>
      </trkpt>
      <trkpt lat="43.56726" lon="6.63632">
        <ele>285</ele>
        <time>2026-03-25T14:04:06.000Z</time>
      </trkpt>
      <trkpt lat="43.5671" lon="6.63659">
        <ele>285</ele>
        <time>2026-03-25T14:04:27.000Z</time>
      </trkpt>
      <trkpt lat="43.56697" lon="6.63686">
        <ele>283</ele>
        <time>2026-03-25T14:04:45.000Z</time>
      </trkpt>
      <trkpt lat="43.56687" lon="6.63716">
        <ele>282</ele>
        <time>2026-03-25T14:05:03.000Z</time>
      </trkpt>
      <trkpt lat="43.56677" lon="6.63746">
        <ele>281</ele>
        <time>2026-03-25T14:05:21.000Z</time>
      </trkpt>
      <trkpt lat="43.56671" lon="6.63777">
        <ele>279</ele>
        <time>2026-03-25T14:05:39.000Z</time>
      </trkpt>
      <trkpt lat="43.56666" lon="6.63809">
        <ele>278</ele>
        <time>2026-03-25T14:05:57.000Z</time>
      </trkpt>
      <trkpt lat="43.56656" lon="6.63838">
        <ele>276</ele>
        <time>2026-03-25T14:06:15.000Z</time>
      </trkpt>
      <trkpt lat="43.56643" lon="6.63863">
        <ele>274</ele>
        <time>2026-03-25T14:06:33.000Z</time>
      </trkpt>
      <trkpt lat="43.56622" lon="6.6387">
        <ele>272</ele>
        <time>2026-03-25T14:09:15.000Z</time>
      </trkpt>
      <trkpt lat="43.56599" lon="6.63867">
        <ele>270</ele>
        <time>2026-03-25T14:09:36.000Z</time>
      </trkpt>
      <trkpt lat="43.56577" lon="6.6387">
        <ele>267</ele>
        <time>2026-03-25T14:09:57.000Z</time>
      </trkpt>
      <trkpt lat="43.56558" lon="6.63889">
        <ele>265</ele>
        <time>2026-03-25T14:10:18.000Z</time>
      </trkpt>
      <trkpt lat="43.56542" lon="6.63916">
        <ele>263</ele>
        <time>2026-03-25T14:10:39.000Z</time>
      </trkpt>
      <trkpt lat="43.56533" lon="6.63947">
        <ele>260</ele>
        <time>2026-03-25T14:11:00.000Z</time>
      </trkpt>
      <trkpt lat="43.56524" lon="6.63979">
        <ele>258</ele>
        <time>2026-03-25T14:11:21.000Z</time>
      </trkpt>
      <trkpt lat="43.56514" lon="6.6401">
        <ele>255</ele>
        <time>2026-03-25T14:11:42.000Z</time>
      </trkpt>
      <trkpt lat="43.56503" lon="6.64035">
        <ele>253</ele>
        <time>2026-03-25T14:12:12.000Z</time>
      </trkpt>
      <trkpt lat="43.56483" lon="6.6403">
        <ele>251</ele>
        <time>2026-03-25T14:15:21.000Z</time>
      </trkpt>
      <trkpt lat="43.56467" lon="6.64041">
        <ele>249</ele>
        <time>2026-03-25T14:15:42.000Z</time>
      </trkpt>
      <trkpt lat="43.56479" lon="6.64061">
        <ele>248</ele>
        <time>2026-03-25T14:16:12.000Z</time>
      </trkpt>
      <trkpt lat="43.56496" lon="6.6408">
        <ele>247</ele>
        <time>2026-03-25T14:16:36.000Z</time>
      </trkpt>
      <trkpt lat="43.56499" lon="6.6411">
        <ele>247</ele>
        <time>2026-03-25T14:17:00.000Z</time>
      </trkpt>
      <trkpt lat="43.56499" lon="6.64144">
        <ele>247</ele>
        <time>2026-03-25T14:17:24.000Z</time>
      </trkpt>
      <trkpt lat="43.56501" lon="6.64176">
        <ele>247</ele>
        <time>2026-03-25T14:18:30.000Z</time>
      </trkpt>
      <trkpt lat="43.56519" lon="6.64195">
        <ele>247</ele>
        <time>2026-03-25T14:19:00.000Z</time>
      </trkpt>
      <trkpt lat="43.56541" lon="6.64207">
        <ele>248</ele>
        <time>2026-03-25T14:19:24.000Z</time>
      </trkpt>
      <trkpt lat="43.5656" lon="6.64221">
        <ele>248</ele>
        <time>2026-03-25T14:19:45.000Z</time>
      </trkpt>
      <trkpt lat="43.56572" lon="6.64247">
        <ele>247</ele>
        <time>2026-03-25T14:20:06.000Z</time>
      </trkpt>
      <trkpt lat="43.56575" lon="6.64279">
        <ele>247</ele>
        <time>2026-03-25T14:20:36.000Z</time>
      </trkpt>
      <trkpt lat="43.56582" lon="6.64311">
        <ele>247</ele>
        <time>2026-03-25T14:20:57.000Z</time>
      </trkpt>
      <trkpt lat="43.56588" lon="6.64343">
        <ele>246</ele>
        <time>2026-03-25T14:21:18.000Z</time>
      </trkpt>
      <trkpt lat="43.56597" lon="6.6437">
        <ele>247</ele>
        <time>2026-03-25T14:21:51.000Z</time>
      </trkpt>
      <trkpt lat="43.56594" lon="6.64393">
        <ele>247</ele>
        <time>2026-03-25T14:23:15.000Z</time>
      </trkpt>
      <trkpt lat="43.56599" lon="6.64372">
        <ele>247</ele>
        <time>2026-03-25T14:24:12.000Z</time>
      </trkpt>
      <trkpt lat="43.56591" lon="6.64341">
        <ele>248</ele>
        <time>2026-03-25T14:24:45.000Z</time>
      </trkpt>
      <trkpt lat="43.56584" lon="6.6431">
        <ele>248</ele>
        <time>2026-03-25T14:25:06.000Z</time>
      </trkpt>
      <trkpt lat="43.56577" lon="6.64279">
        <ele>247</ele>
        <time>2026-03-25T14:25:27.000Z</time>
      </trkpt>
      <trkpt lat="43.56573" lon="6.64247">
        <ele>246</ele>
        <time>2026-03-25T14:25:48.000Z</time>
      </trkpt>
      <trkpt lat="43.5656" lon="6.64221">
        <ele>246</ele>
        <time>2026-03-25T14:26:09.000Z</time>
      </trkpt>
      <trkpt lat="43.56538" lon="6.64205">
        <ele>245</ele>
        <time>2026-03-25T14:26:30.000Z</time>
      </trkpt>
      <trkpt lat="43.56516" lon="6.64195">
        <ele>245</ele>
        <time>2026-03-25T14:26:51.000Z</time>
      </trkpt>
      <trkpt lat="43.56493" lon="6.64188">
        <ele>246</ele>
        <time>2026-03-25T14:27:15.000Z</time>
      </trkpt>
      <trkpt lat="43.56471" lon="6.64196">
        <ele>247</ele>
        <time>2026-03-25T14:27:39.000Z</time>
      </trkpt>
      <trkpt lat="43.56449" lon="6.64209">
        <ele>247</ele>
        <time>2026-03-25T14:28:12.000Z</time>
      </trkpt>
      <trkpt lat="43.56427" lon="6.64216">
        <ele>246</ele>
        <time>2026-03-25T14:28:36.000Z</time>
      </trkpt>
      <trkpt lat="43.56404" lon="6.64215">
        <ele>246</ele>
        <time>2026-03-25T14:29:21.000Z</time>
      </trkpt>
      <trkpt lat="43.5638" lon="6.64211">
        <ele>245</ele>
        <time>2026-03-25T14:29:51.000Z</time>
      </trkpt>
      <trkpt lat="43.56361" lon="6.64226">
        <ele>244</ele>
        <time>2026-03-25T14:30:12.000Z</time>
      </trkpt>
      <trkpt lat="43.56348" lon="6.64253">
        <ele>244</ele>
        <time>2026-03-25T14:30:33.000Z</time>
      </trkpt>
      <trkpt lat="43.56335" lon="6.64281">
        <ele>244</ele>
        <time>2026-03-25T14:30:54.000Z</time>
      </trkpt>
      <trkpt lat="43.56323" lon="6.6431">
        <ele>245</ele>
        <time>2026-03-25T14:31:15.000Z</time>
      </trkpt>
      <trkpt lat="43.56316" lon="6.64338">
        <ele>245</ele>
        <time>2026-03-25T14:31:36.000Z</time>
      </trkpt>
      <trkpt lat="43.56332" lon="6.64357">
        <ele>246</ele>
        <time>2026-03-25T14:32:03.000Z</time>
      </trkpt>
      <trkpt lat="43.56353" lon="6.64371">
        <ele>246</ele>
        <time>2026-03-25T14:32:24.000Z</time>
      </trkpt>
      <trkpt lat="43.56373" lon="6.64387">
        <ele>246</ele>
        <time>2026-03-25T14:32:45.000Z</time>
      </trkpt>
      <trkpt lat="43.56393" lon="6.64406">
        <ele>245</ele>
        <time>2026-03-25T14:33:06.000Z</time>
      </trkpt>
      <trkpt lat="43.56413" lon="6.64426">
        <ele>243</ele>
        <time>2026-03-25T14:33:27.000Z</time>
      </trkpt>
      <trkpt lat="43.56434" lon="6.64437">
        <ele>241</ele>
        <time>2026-03-25T14:33:48.000Z</time>
      </trkpt>
      <trkpt lat="43.56457" lon="6.64445">
        <ele>238</ele>
        <time>2026-03-25T14:34:36.000Z</time>
      </trkpt>
      <trkpt lat="43.56474" lon="6.64464">
        <ele>235</ele>
        <time>2026-03-25T14:35:18.000Z</time>
      </trkpt>
      <trkpt lat="43.56482" lon="6.64493">
        <ele>234</ele>
        <time>2026-03-25T14:37:15.000Z</time>
      </trkpt>
      <trkpt lat="43.56489" lon="6.64523">
        <ele>235</ele>
        <time>2026-03-25T14:37:48.000Z</time>
      </trkpt>
      <trkpt lat="43.56499" lon="6.6455">
        <ele>237</ele>
        <time>2026-03-25T14:40:22.000Z</time>
      </trkpt>
      <trkpt lat="43.56498" lon="6.6458">
        <ele>240</ele>
        <time>2026-03-25T14:45:49.000Z</time>
      </trkpt>
      <trkpt lat="43.56509" lon="6.64601">
        <ele>244</ele>
        <time>2026-03-25T14:47:01.000Z</time>
      </trkpt>
      <trkpt lat="43.56528" lon="6.64593">
        <ele>248</ele>
        <time>2026-03-25T14:47:43.000Z</time>
      </trkpt>
      <trkpt lat="43.56551" lon="6.64591">
        <ele>251</ele>
        <time>2026-03-25T14:48:49.000Z</time>
      </trkpt>
      <trkpt lat="43.5657" lon="6.64576">
        <ele>254</ele>
        <time>2026-03-25T14:49:43.000Z</time>
      </trkpt>
      <trkpt lat="43.56582" lon="6.64551">
        <ele>256</ele>
        <time>2026-03-25T14:50:25.000Z</time>
      </trkpt>
      <trkpt lat="43.56597" lon="6.64525">
        <ele>258</ele>
        <time>2026-03-25T14:50:49.000Z</time>
      </trkpt>
      <trkpt lat="43.56615" lon="6.64507">
        <ele>260</ele>
        <time>2026-03-25T14:51:10.000Z</time>
      </trkpt>
      <trkpt lat="43.56624" lon="6.64487">
        <ele>263</ele>
        <time>2026-03-25T14:51:47.000Z</time>
      </trkpt>
      <trkpt lat="43.56624" lon="6.6451">
        <ele>265</ele>
        <time>2026-03-25T14:56:47.000Z</time>
      </trkpt>
      <trkpt lat="43.56624" lon="6.64541">
        <ele>267</ele>
        <time>2026-03-25T14:57:32.000Z</time>
      </trkpt>
      <trkpt lat="43.5663" lon="6.64571">
        <ele>269</ele>
        <time>2026-03-25T14:58:02.000Z</time>
      </trkpt>
      <trkpt lat="43.56634" lon="6.64602">
        <ele>270</ele>
        <time>2026-03-25T14:58:26.000Z</time>
      </trkpt>
      <trkpt lat="43.56634" lon="6.64634">
        <ele>271</ele>
        <time>2026-03-25T14:58:47.000Z</time>
      </trkpt>
      <trkpt lat="43.5663" lon="6.64666">
        <ele>272</ele>
        <time>2026-03-25T14:59:08.000Z</time>
      </trkpt>
      <trkpt lat="43.56624" lon="6.64697">
        <ele>273</ele>
        <time>2026-03-25T14:59:26.000Z</time>
      </trkpt>
      <trkpt lat="43.56625" lon="6.64728">
        <ele>273</ele>
        <time>2026-03-25T14:59:50.000Z</time>
      </trkpt>
      <trkpt lat="43.56632" lon="6.64755">
        <ele>273</ele>
        <time>2026-03-25T15:00:17.000Z</time>
      </trkpt>
      <trkpt lat="43.56652" lon="6.64757">
        <ele>273</ele>
        <time>2026-03-25T15:00:38.000Z</time>
      </trkpt>
      <trkpt lat="43.56673" lon="6.64741">
        <ele>271</ele>
        <time>2026-03-25T15:01:02.000Z</time>
      </trkpt>
      <trkpt lat="43.56693" lon="6.64724">
        <ele>269</ele>
        <time>2026-03-25T15:01:26.000Z</time>
      </trkpt>
      <trkpt lat="43.56716" lon="6.64716">
        <ele>267</ele>
        <time>2026-03-25T15:01:50.000Z</time>
      </trkpt>
      <trkpt lat="43.56739" lon="6.64718">
        <ele>264</ele>
        <time>2026-03-25T15:02:14.000Z</time>
      </trkpt>
      <trkpt lat="43.56761" lon="6.64721">
        <ele>261</ele>
        <time>2026-03-25T15:02:50.000Z</time>
      </trkpt>
      <trkpt lat="43.56783" lon="6.64731">
        <ele>257</ele>
        <time>2026-03-25T15:03:17.000Z</time>
      </trkpt>
      <trkpt lat="43.56804" lon="6.64744">
        <ele>254</ele>
        <time>2026-03-25T15:03:41.000Z</time>
      </trkpt>
      <trkpt lat="43.56823" lon="6.6476">
        <ele>252</ele>
        <time>2026-03-25T15:04:05.000Z</time>
      </trkpt>
      <trkpt lat="43.56841" lon="6.64764">
        <ele>250</ele>
        <time>2026-03-25T15:04:29.000Z</time>
      </trkpt>
      <trkpt lat="43.56843" lon="6.64738">
        <ele>249</ele>
        <time>2026-03-25T15:08:41.000Z</time>
      </trkpt>
      <trkpt lat="43.56846" lon="6.64706">
        <ele>249</ele>
        <time>2026-03-25T15:09:02.000Z</time>
      </trkpt>
      <trkpt lat="43.56851" lon="6.64675">
        <ele>249</ele>
        <time>2026-03-25T15:09:23.000Z</time>
      </trkpt>
      <trkpt lat="43.56861" lon="6.64643">
        <ele>249</ele>
        <time>2026-03-25T15:09:44.000Z</time>
      </trkpt>
      <trkpt lat="43.56869" lon="6.6461">
        <ele>249</ele>
        <time>2026-03-25T15:10:05.000Z</time>
      </trkpt>
      <trkpt lat="43.56873" lon="6.6458">
        <ele>250</ele>
        <time>2026-03-25T15:10:23.000Z</time>
      </trkpt>
      <trkpt lat="43.56882" lon="6.64553">
        <ele>250</ele>
        <time>2026-03-25T15:10:41.000Z</time>
      </trkpt>
      <trkpt lat="43.56875" lon="6.64523">
        <ele>251</ele>
        <time>2026-03-25T15:11:02.000Z</time>
      </trkpt>
      <trkpt lat="43.56871" lon="6.64492">
        <ele>252</ele>
        <time>2026-03-25T15:11:23.000Z</time>
      </trkpt>
      <trkpt lat="43.56868" lon="6.64462">
        <ele>253</ele>
        <time>2026-03-25T15:11:41.000Z</time>
      </trkpt>
      <trkpt lat="43.56877" lon="6.64431">
        <ele>254</ele>
        <time>2026-03-25T15:12:02.000Z</time>
      </trkpt>
      <trkpt lat="43.5689" lon="6.64404">
        <ele>255</ele>
        <time>2026-03-25T15:12:20.000Z</time>
      </trkpt>
      <trkpt lat="43.56909" lon="6.64386">
        <ele>256</ele>
        <time>2026-03-25T15:12:38.000Z</time>
      </trkpt>
      <trkpt lat="43.5693" lon="6.64371">
        <ele>257</ele>
        <time>2026-03-25T15:12:56.000Z</time>
      </trkpt>
      <trkpt lat="43.56953" lon="6.64372">
        <ele>257</ele>
        <time>2026-03-25T15:13:17.000Z</time>
      </trkpt>
      <trkpt lat="43.56971" lon="6.64383">
        <ele>258</ele>
        <time>2026-03-25T15:13:35.000Z</time>
      </trkpt>
      <trkpt lat="43.56987" lon="6.64363">
        <ele>258</ele>
        <time>2026-03-25T15:13:56.000Z</time>
      </trkpt>
      <trkpt lat="43.57001" lon="6.64338">
        <ele>258</ele>
        <time>2026-03-25T15:14:14.000Z</time>
      </trkpt>
      <trkpt lat="43.57018" lon="6.64317">
        <ele>257</ele>
        <time>2026-03-25T15:14:32.000Z</time>
      </trkpt>
      <trkpt lat="43.57038" lon="6.64303">
        <ele>257</ele>
        <time>2026-03-25T15:14:50.000Z</time>
      </trkpt>
      <trkpt lat="43.5706" lon="6.64292">
        <ele>256</ele>
        <time>2026-03-25T15:17:53.000Z</time>
      </trkpt>
      <trkpt lat="43.5708" lon="6.64282">
        <ele>256</ele>
        <time>2026-03-25T15:18:17.000Z</time>
      </trkpt>
      <trkpt lat="43.57072" lon="6.64257">
        <ele>256</ele>
        <time>2026-03-25T15:18:44.000Z</time>
      </trkpt>
      <trkpt lat="43.57049" lon="6.64247">
        <ele>256</ele>
        <time>2026-03-25T15:19:05.000Z</time>
      </trkpt>
      <trkpt lat="43.57026" lon="6.6425">
        <ele>256</ele>
        <time>2026-03-25T15:19:23.000Z</time>
      </trkpt>
      <trkpt lat="43.57002" lon="6.64253">
        <ele>257</ele>
        <time>2026-03-25T15:19:41.000Z</time>
      </trkpt>
      <trkpt lat="43.56983" lon="6.64238">
        <ele>257</ele>
        <time>2026-03-25T15:20:11.000Z</time>
      </trkpt>
      <trkpt lat="43.56982" lon="6.64206">
        <ele>257</ele>
        <time>2026-03-25T15:20:32.000Z</time>
      </trkpt>
      <trkpt lat="43.56992" lon="6.64177">
        <ele>257</ele>
        <time>2026-03-25T15:20:50.000Z</time>
      </trkpt>
      <trkpt lat="43.57004" lon="6.64149">
        <ele>257</ele>
        <time>2026-03-25T15:21:11.000Z</time>
      </trkpt>
      <trkpt lat="43.57013" lon="6.64118">
        <ele>257</ele>
        <time>2026-03-25T15:21:29.000Z</time>
      </trkpt>
      <trkpt lat="43.57023" lon="6.64091">
        <ele>256</ele>
        <time>2026-03-25T15:21:47.000Z</time>
      </trkpt>
      <trkpt lat="43.57043" lon="6.64076">
        <ele>255</ele>
        <time>2026-03-25T15:22:08.000Z</time>
      </trkpt>
      <trkpt lat="43.57065" lon="6.6408">
        <ele>254</ele>
        <time>2026-03-25T15:22:26.000Z</time>
      </trkpt>
      <trkpt lat="43.57084" lon="6.64073">
        <ele>253</ele>
        <time>2026-03-25T15:22:44.000Z</time>
      </trkpt>
      <trkpt lat="43.5709" lon="6.64044">
        <ele>252</ele>
        <time>2026-03-25T15:23:02.000Z</time>
      </trkpt>
      <trkpt lat="43.57103" lon="6.64016">
        <ele>251</ele>
        <time>2026-03-25T15:23:23.000Z</time>
      </trkpt>
      <trkpt lat="43.57123" lon="6.64006">
        <ele>250</ele>
        <time>2026-03-25T15:23:41.000Z</time>
      </trkpt>
      <trkpt lat="43.57145" lon="6.64019">
        <ele>249</ele>
        <time>2026-03-25T15:24:02.000Z</time>
      </trkpt>
      <trkpt lat="43.57165" lon="6.64038">
        <ele>249</ele>
        <time>2026-03-25T15:24:20.000Z</time>
      </trkpt>
      <trkpt lat="43.57186" lon="6.64052">
        <ele>248</ele>
        <time>2026-03-25T15:24:38.000Z</time>
      </trkpt>
      <trkpt lat="43.57208" lon="6.64051">
        <ele>248</ele>
        <time>2026-03-25T15:24:59.000Z</time>
      </trkpt>
      <trkpt lat="43.57212" lon="6.64023">
        <ele>248</ele>
        <time>2026-03-25T15:25:17.000Z</time>
      </trkpt>
      <trkpt lat="43.57203" lon="6.63993">
        <ele>248</ele>
        <time>2026-03-25T15:25:35.000Z</time>
      </trkpt>
      <trkpt lat="43.57202" lon="6.63964">
        <ele>249</ele>
        <time>2026-03-25T15:25:53.000Z</time>
      </trkpt>
      <trkpt lat="43.57217" lon="6.6394">
        <ele>249</ele>
        <time>2026-03-25T15:26:14.000Z</time>
      </trkpt>
      <trkpt lat="43.57237" lon="6.63928">
        <ele>250</ele>
        <time>2026-03-25T15:26:35.000Z</time>
      </trkpt>
      <trkpt lat="43.57259" lon="6.63919">
        <ele>250</ele>
        <time>2026-03-25T15:26:56.000Z</time>
      </trkpt>
      <trkpt lat="43.5728" lon="6.63904">
        <ele>249</ele>
        <time>2026-03-25T15:27:14.000Z</time>
      </trkpt>
      <trkpt lat="43.57301" lon="6.63886">
        <ele>249</ele>
        <time>2026-03-25T15:27:35.000Z</time>
      </trkpt>
      <trkpt lat="43.57323" lon="6.63875">
        <ele>248</ele>
        <time>2026-03-25T15:27:53.000Z</time>
      </trkpt>
      <trkpt lat="43.57345" lon="6.63871">
        <ele>248</ele>
        <time>2026-03-25T15:28:11.000Z</time>
      </trkpt>
      <trkpt lat="43.57368" lon="6.63869">
        <ele>247</ele>
        <time>2026-03-25T15:28:29.000Z</time>
      </trkpt>
      <trkpt lat="43.57385" lon="6.63857">
        <ele>247</ele>
        <time>2026-03-25T15:28:47.000Z</time>
      </trkpt>
      <trkpt lat="43.57375" lon="6.63837">
        <ele>248</ele>
        <time>2026-03-25T15:30:56.000Z</time>
      </trkpt>
      <trkpt lat="43.57353" lon="6.63826">
        <ele>249</ele>
        <time>2026-03-25T15:31:23.000Z</time>
      </trkpt>
      <trkpt lat="43.57331" lon="6.63814">
        <ele>250</ele>
        <time>2026-03-25T15:31:44.000Z</time>
      </trkpt>
      <trkpt lat="43.57309" lon="6.63798">
        <ele>251</ele>
        <time>2026-03-25T15:32:05.000Z</time>
      </trkpt>
      <trkpt lat="43.57296" lon="6.63771">
        <ele>252</ele>
        <time>2026-03-25T15:32:26.000Z</time>
      </trkpt>
      <trkpt lat="43.57295" lon="6.63739">
        <ele>252</ele>
        <time>2026-03-25T15:32:50.000Z</time>
      </trkpt>
      <trkpt lat="43.57285" lon="6.63712">
        <ele>251</ele>
        <time>2026-03-25T15:35:50.000Z</time>
      </trkpt>
      <trkpt lat="43.57271" lon="6.63687">
        <ele>250</ele>
        <time>2026-03-25T15:36:35.000Z</time>
      </trkpt>
      <trkpt lat="43.5725" lon="6.6368">
        <ele>249</ele>
        <time>2026-03-25T15:37:05.000Z</time>
      </trkpt>
      <trkpt lat="43.57227" lon="6.63679">
        <ele>249</ele>
        <time>2026-03-25T15:37:35.000Z</time>
      </trkpt>
      <trkpt lat="43.57208" lon="6.63673">
        <ele>248</ele>
        <time>2026-03-25T15:37:59.000Z</time>
      </trkpt>
      <trkpt lat="43.57212" lon="6.63646">
        <ele>248</ele>
        <time>2026-03-25T15:39:05.000Z</time>
      </trkpt>
      <trkpt lat="43.57225" lon="6.6362">
        <ele>248</ele>
        <time>2026-03-25T15:39:26.000Z</time>
      </trkpt>
      <trkpt lat="43.57244" lon="6.636">
        <ele>248</ele>
        <time>2026-03-25T15:39:50.000Z</time>
      </trkpt>
      <trkpt lat="43.57263" lon="6.63581">
        <ele>248</ele>
        <time>2026-03-25T15:40:17.000Z</time>
      </trkpt>
      <trkpt lat="43.57284" lon="6.63566">
        <ele>249</ele>
        <time>2026-03-25T15:40:41.000Z</time>
      </trkpt>
      <trkpt lat="43.57302" lon="6.63547">
        <ele>250</ele>
        <time>2026-03-25T15:40:59.000Z</time>
      </trkpt>
      <trkpt lat="43.57317" lon="6.63522">
        <ele>251</ele>
        <time>2026-03-25T15:41:17.000Z</time>
      </trkpt>
      <trkpt lat="43.57335" lon="6.63501">
        <ele>252</ele>
        <time>2026-03-25T15:41:41.000Z</time>
      </trkpt>
      <trkpt lat="43.57348" lon="6.63474">
        <ele>254</ele>
        <time>2026-03-25T15:42:08.000Z</time>
      </trkpt>
      <trkpt lat="43.57349" lon="6.63442">
        <ele>257</ele>
        <time>2026-03-25T15:42:35.000Z</time>
      </trkpt>
      <trkpt lat="43.57357" lon="6.63411">
        <ele>259</ele>
        <time>2026-03-25T15:43:02.000Z</time>
      </trkpt>
      <trkpt lat="43.57368" lon="6.63381">
        <ele>262</ele>
        <time>2026-03-25T15:43:35.000Z</time>
      </trkpt>
      <trkpt lat="43.57375" lon="6.63351">
        <ele>264</ele>
        <time>2026-03-25T15:44:08.000Z</time>
      </trkpt>
      <trkpt lat="43.57383" lon="6.63319">
        <ele>266</ele>
        <time>2026-03-25T15:44:35.000Z</time>
      </trkpt>
      <trkpt lat="43.57394" lon="6.63292">
        <ele>269</ele>
        <time>2026-03-25T15:44:59.000Z</time>
      </trkpt>
      <trkpt lat="43.57399" lon="6.63261">
        <ele>272</ele>
        <time>2026-03-25T15:45:23.000Z</time>
      </trkpt>
      <trkpt lat="43.57401" lon="6.63229">
        <ele>275</ele>
        <time>2026-03-25T15:45:53.000Z</time>
      </trkpt>
      <trkpt lat="43.57409" lon="6.63201">
        <ele>277</ele>
        <time>2026-03-25T15:46:23.000Z</time>
      </trkpt>
      <trkpt lat="43.57416" lon="6.63171">
        <ele>280</ele>
        <time>2026-03-25T15:46:50.000Z</time>
      </trkpt>
      <trkpt lat="43.5742" lon="6.6314">
        <ele>283</ele>
        <time>2026-03-25T15:47:14.000Z</time>
      </trkpt>
      <trkpt lat="43.57425" lon="6.63109">
        <ele>285</ele>
        <time>2026-03-25T15:47:38.000Z</time>
      </trkpt>
      <trkpt lat="43.57434" lon="6.63079">
        <ele>288</ele>
        <time>2026-03-25T15:48:02.000Z</time>
      </trkpt>
      <trkpt lat="43.57449" lon="6.63052">
        <ele>290</ele>
        <time>2026-03-25T15:48:29.000Z</time>
      </trkpt>
      <trkpt lat="43.5746" lon="6.63022">
        <ele>292</ele>
        <time>2026-03-25T15:48:56.000Z</time>
      </trkpt>
      <trkpt lat="43.57471" lon="6.62992">
        <ele>295</ele>
        <time>2026-03-25T15:49:20.000Z</time>
      </trkpt>
      <trkpt lat="43.57479" lon="6.62962">
        <ele>297</ele>
        <time>2026-03-25T15:49:41.000Z</time>
      </trkpt>
      <trkpt lat="43.57486" lon="6.62933">
        <ele>299</ele>
        <time>2026-03-25T15:50:02.000Z</time>
      </trkpt>
      <trkpt lat="43.57496" lon="6.62904">
        <ele>301</ele>
        <time>2026-03-25T15:50:26.000Z</time>
      </trkpt>
      <trkpt lat="43.57506" lon="6.62873">
        <ele>303</ele>
        <time>2026-03-25T15:50:53.000Z</time>
      </trkpt>
      <trkpt lat="43.5751" lon="6.62841">
        <ele>304</ele>
        <time>2026-03-25T15:51:14.000Z</time>
      </trkpt>
      <trkpt lat="43.57512" lon="6.62808">
        <ele>306</ele>
        <time>2026-03-25T15:51:35.000Z</time>
      </trkpt>
      <trkpt lat="43.5752" lon="6.62778">
        <ele>307</ele>
        <time>2026-03-25T15:51:56.000Z</time>
      </trkpt>
      <trkpt lat="43.57528" lon="6.62749">
        <ele>309</ele>
        <time>2026-03-25T15:52:17.000Z</time>
      </trkpt>
      <trkpt lat="43.57536" lon="6.62717">
        <ele>310</ele>
        <time>2026-03-25T15:52:44.000Z</time>
      </trkpt>
      <trkpt lat="43.5754" lon="6.62685">
        <ele>312</ele>
        <time>2026-03-25T15:53:08.000Z</time>
      </trkpt>
      <trkpt lat="43.57545" lon="6.62655">
        <ele>313</ele>
        <time>2026-03-25T15:53:29.000Z</time>
      </trkpt>
      <trkpt lat="43.57555" lon="6.62626">
        <ele>314</ele>
        <time>2026-03-25T15:53:50.000Z</time>
      </trkpt>
      <trkpt lat="43.57569" lon="6.62601">
        <ele>316</ele>
        <time>2026-03-25T15:54:11.000Z</time>
      </trkpt>
      <trkpt lat="43.57579" lon="6.62572">
        <ele>318</ele>
        <time>2026-03-25T15:54:32.000Z</time>
      </trkpt>
      <trkpt lat="43.57588" lon="6.62541">
        <ele>320</ele>
        <time>2026-03-25T15:54:53.000Z</time>
      </trkpt>
      <trkpt lat="43.576" lon="6.62513">
        <ele>322</ele>
        <time>2026-03-25T15:55:17.000Z</time>
      </trkpt>
      <trkpt lat="43.57619" lon="6.62496">
        <ele>324</ele>
        <time>2026-03-25T15:55:41.000Z</time>
      </trkpt>
      <trkpt lat="43.57641" lon="6.62494">
        <ele>326</ele>
        <time>2026-03-25T16:01:29.000Z</time>
      </trkpt>
      <trkpt lat="43.57662" lon="6.62508">
        <ele>328</ele>
        <time>2026-03-25T16:01:53.000Z</time>
      </trkpt>
      <trkpt lat="43.57684" lon="6.62505">
        <ele>329</ele>
        <time>2026-03-25T16:02:14.000Z</time>
      </trkpt>
      <trkpt lat="43.57706" lon="6.62491">
        <ele>330</ele>
        <time>2026-03-25T16:02:35.000Z</time>
      </trkpt>
      <trkpt lat="43.57726" lon="6.62475">
        <ele>331</ele>
        <time>2026-03-25T16:02:53.000Z</time>
      </trkpt>
      <trkpt lat="43.57744" lon="6.62456">
        <ele>332</ele>
        <time>2026-03-25T16:03:11.000Z</time>
      </trkpt>
      <trkpt lat="43.57762" lon="6.62435">
        <ele>333</ele>
        <time>2026-03-25T16:03:29.000Z</time>
      </trkpt>
      <trkpt lat="43.57779" lon="6.6241">
        <ele>333</ele>
        <time>2026-03-25T16:03:47.000Z</time>
      </trkpt>
      <trkpt lat="43.57793" lon="6.62384">
        <ele>334</ele>
        <time>2026-03-25T16:04:05.000Z</time>
      </trkpt>
      <trkpt lat="43.57807" lon="6.62357">
        <ele>334</ele>
        <time>2026-03-25T16:04:23.000Z</time>
      </trkpt>
      <trkpt lat="43.57817" lon="6.62326">
        <ele>334</ele>
        <time>2026-03-25T16:04:41.000Z</time>
      </trkpt>
      <trkpt lat="43.5783" lon="6.623">
        <ele>334</ele>
        <time>2026-03-25T16:04:59.000Z</time>
      </trkpt>
      <trkpt lat="43.57845" lon="6.62277">
        <ele>334</ele>
        <time>2026-03-25T16:05:17.000Z</time>
      </trkpt>
      <trkpt lat="43.57867" lon="6.62263">
        <ele>334</ele>
        <time>2026-03-25T16:05:38.000Z</time>
      </trkpt>
      <trkpt lat="43.57891" lon="6.62261">
        <ele>333</ele>
        <time>2026-03-25T16:05:56.000Z</time>
      </trkpt>
      <trkpt lat="43.57914" lon="6.6226">
        <ele>332</ele>
        <time>2026-03-25T16:06:14.000Z</time>
      </trkpt>
      <trkpt lat="43.57938" lon="6.62263">
        <ele>332</ele>
        <time>2026-03-25T16:06:32.000Z</time>
      </trkpt>
      <trkpt lat="43.5796" lon="6.62252">
        <ele>332</ele>
        <time>2026-03-25T16:06:50.000Z</time>
      </trkpt>
      <trkpt lat="43.57983" lon="6.62243">
        <ele>330</ele>
        <time>2026-03-25T16:07:08.000Z</time>
      </trkpt>
      <trkpt lat="43.58006" lon="6.62241">
        <ele>329</ele>
        <time>2026-03-25T16:07:26.000Z</time>
      </trkpt>
      <trkpt lat="43.58028" lon="6.62257">
        <ele>328</ele>
        <time>2026-03-25T16:07:47.000Z</time>
      </trkpt>
    </trkseg>
  </trk>
</gpx>